Calhan, Colorado
Current Conditions -  °F | °C
As of 4:13 PM on Friday 31 Oct 2014 (Local Time) from KFLY Reporting Station
Clear Clear  
Wind Chill: 42°   Ceiling: Unl
Heat Index: 48°   Visibility: 10mi
Dew Point: 27°   Wind: 15mph
Humidity: 43%   Direction: 180°S
Pressure: 30.24"   Gusts: 20mph
Location:  39.04°N, 104.3°W
Report Text: KFLY 312213Z AUTO 18013G17KT 10SM CLR 09/M03 A3024 RMK AO2 T00891030
Loading
Personal Weather Stations






























Interactive Weather Map
Tropical Storm Tracking
New forecast layout! Learn more

10-Day Weather Forecast

Advertisements
Track Severe Weather on mobile